Flight Track Log - Related Links

Times and Time Zones

All times are in EDT time to prevent confusion due to time zone crossing. See the AWI3919 flight status page for this flight to view local times or setup timezone preferences in your user account.

Time Position Orientation Groundspeed Altitude Reporting Facility
EDT Latitude Longitude Course Direction KTS MPH feet Rate Location/Type
Mon 05:32:32 AM 37.2007 -79.2940 37° Northeast  Level FlightAware Approximate
Mon 05:33:01 AM 37.2672 -79.2300 213° Southwest 182 209 2,300  Level Washington Center
Mon 05:38:04 AM 36.9458 -79.4903 214° Southwest 302 348 12,100 1,967 Climbing Washington Center
Mon 05:39:01 AM 36.8772 -79.5492 213° Southwest 302 348 14,100 2,017 Climbing Washington Center
Mon 05:40:03 AM 36.8022 -79.6100 213° Southwest 314 361 16,100 1,265 Climbing Washington Center
Mon 05:42:06 AM 36.6481 -79.7333 213° Southwest 344 396 18,000 623 Climbing Atlanta Center
Mon 05:43:06 AM 36.5547 -79.8081 213° Southwest 359 413 18,000  Level Atlanta Center
Mon 05:44:06 AM 36.4675 -79.8797 213° Southwest 369 425 18,000  Level Atlanta Center
Mon 05:45:06 AM 36.3781 -79.9514 214° Southwest 375 432 18,000  Level Atlanta Center
Mon 05:46:06 AM 36.2889 -80.0256 214° Southwest 387 445 18,000 -50 Level Atlanta Center
Mon 05:47:06 AM 36.2017 -80.0994 215° Southwest 387 445 17,900 -650 Descending Atlanta Center
Mon 05:48:06 AM 36.1164 -80.1731 215° Southwest 397 457 16,700 -1,150 Descending Atlanta Center
Mon 05:49:06 AM 36.0269 -80.2492 218° Southwest 397 457 15,600 -1,200 Descending Atlanta Center
Mon 05:49:36 AM 35.9761 -80.2978 218° Southwest 390 449 14,900 -1,300 Descending Atlanta Center
Mon 05:50:06 AM 35.9336 -80.3381 220° Southwest 392 451 14,300 -1,254 Descending Atlanta Center
Mon 05:50:43 AM 35.8811 -80.3917 211° Southwest 379 436 13,500 -796 Descending Atlanta Center
Mon 05:51:44 AM 35.8014 -80.4517 211° Southwest 324 373 13,000 -689 Descending Atlanta Center
Mon 05:52:45 AM 35.7319 -80.5033 192° South 294 338 12,100 -1,043 Descending Atlanta Center
Mon 05:53:39 AM 35.6636 -80.5217 195° South 273 314 11,000 -1,304 Descending Atlanta Center
Mon 05:54:40 AM 35.5914 -80.5453 194° South 260 299 9,600 -1,376 Descending Atlanta Center
Mon 05:56:29 AM 35.4739 -80.5814 229° Southwest 250 288 7,100 -1,320 Descending FAA TRACON SMA TRACON (SMA)
Mon 05:57:10 AM 35.4464 -80.6206 229° Southwest 245 282 6,300 -815 Descending FAA TRACON SMA TRACON (SMA)
Mon 05:57:50 AM 35.4150 -80.6656 229° Southwest 225 259 6,000 -300 Descending FAA TRACON SMA TRACON (SMA)
Mon 05:58:30 AM 35.3914 -80.6989 228° Southwest 192 221 5,900 -608 Descending FAA TRACON SMA TRACON (SMA)
Mon 05:59:09 AM 35.3717 -80.7258 228° Southwest 193 222 5,200 -759 Descending FAA TRACON SMA TRACON (SMA)
Mon 05:59:49 AM 35.3472 -80.7594 229° Southwest 192 221 4,900 -815 Descending FAA TRACON SMA TRACON (SMA)
Mon 06:00:30 AM 35.3239 -80.7928 228° Southwest 187 215 4,100 -1,259 Descending FAA TRACON SMA TRACON (SMA)
Mon 06:01:10 AM 35.3000 -80.8247 228° Southwest 183 211 3,200 -1,200 Descending FAA TRACON SMA TRACON (SMA)
Mon 06:01:50 AM 35.2775 -80.8556 229° Southwest 177 204 2,500 -1,063 Descending FAA TRACON SMA TRACON (SMA)
Mon 06:02:29 AM 35.2597 -80.8806 228° Southwest 164 189 1,800 -900 Descending FAA TRACON SMA TRACON (SMA)
Mon 06:03:30 AM 35.2292 -80.9219 229° Southwest 152 175 1,000 -540 Descending FAA TRACON SMA TRACON (SMA)
Mon 06:04:09 AM 35.2250 -80.9278 229° Southwest 152 175 900 -154 Descending FAA TRACON SMA TRACON (SMA)

Login

Don't have an account? Register now (free) for customized features, flight alerts, and more!